Terminal Aerodrome Forecast
Issued by NWS Omaha/Valley, NE

Home | Current Version | Previous Version | Graphics & Text | Print | Product List | Glossary On
Versions: 1 2 3 4 5 6 7 8 9 10 11 12 13 14 15 16
000
FTUS43 KOAX 180520
TAFOFK
TAF
KOFK 180520Z 1806/1906 15006KT P6SM FEW100 BKN250
     FM181200 15010KT P6SM SCT250
     FM181500 17016G24KT P6SM SCT250
     FM181800 18020G30KT P6SM SCT040 SCT250
     FM190100 16015G22KT P6SM SCT250=

USA.gov is the U.S. government's official web portal to all federal, state and local government web resources and services.